sensor_id;sensor_type;location;lat;lon;timestamp;P1;durP1;ratioP1;P2;durP2;ratioP2
18473;SDS011;30265;52.408;13.500;2022-07-23T00:03:14;14.88;;;7.13;;
18473;SDS011;30265;52.408;13.500;2022-07-23T00:13:36;13.98;;;7.50;;
18473;SDS011;30265;52.408;13.500;2022-07-23T00:23:59;15.65;;;7.80;;
18473;SDS011;30265;52.408;13.500;2022-07-23T00:34:20;14.63;;;7.97;;
18473;SDS011;30265;52.408;13.500;2022-07-23T00:44:43;23.25;;;8.40;;
18473;SDS011;30265;52.408;13.500;2022-07-23T00:55:07;15.20;;;8.48;;
18473;SDS011;30265;52.408;13.500;2022-07-23T01:05:32;14.95;;;7.60;;
18473;SDS011;30265;52.408;13.500;2022-07-23T01:15:54;16.80;;;8.02;;
18473;SDS011;30265;52.408;13.500;2022-07-23T01:26:17;18.63;;;9.07;;
18473;SDS011;30265;52.408;13.500;2022-07-23T01:36:40;16.85;;;8.55;;
18473;SDS011;30265;52.408;13.500;2022-07-23T01:47:05;17.35;;;8.48;;
18473;SDS011;30265;52.408;13.500;2022-07-23T01:57:27;17.27;;;8.40;;
18473;SDS011;30265;52.408;13.500;2022-07-23T02:07:50;18.27;;;8.60;;
18473;SDS011;30265;52.408;13.500;2022-07-23T02:18:14;19.25;;;7.85;;
18473;SDS011;30265;52.408;13.500;2022-07-23T02:28:39;14.27;;;7.43;;
18473;SDS011;30265;52.408;13.500;2022-07-23T02:39:02;14.27;;;7.87;;
18473;SDS011;30265;52.408;13.500;2022-07-23T02:49:28;17.85;;;7.80;;
18473;SDS011;30265;52.408;13.500;2022-07-23T02:59:54;16.17;;;7.45;;
18473;SDS011;30265;52.408;13.500;2022-07-23T03:10:18;17.50;;;7.43;;
18473;SDS011;30265;52.408;13.500;2022-07-23T03:20:41;17.08;;;8.52;;
18473;SDS011;30265;52.408;13.500;2022-07-23T03:31:09;19.40;;;9.02;;
18473;SDS011;30265;52.408;13.500;2022-07-23T03:41:32;12.57;;;7.85;;
18473;SDS011;30265;52.408;13.500;2022-07-23T03:51:56;16.80;;;7.22;;
18473;SDS011;30265;52.408;13.500;2022-07-23T04:02:19;16.40;;;7.43;;
18473;SDS011;30265;52.408;13.500;2022-07-23T04:12:44;19.25;;;7.43;;
18473;SDS011;30265;52.408;13.500;2022-07-23T04:23:07;9.18;;;5.53;;
18473;SDS011;30265;52.408;13.500;2022-07-23T04:33:34;11.80;;;5.47;;
18473;SDS011;30265;52.408;13.500;2022-07-23T04:43:59;8.98;;;5.13;;
18473;SDS011;30265;52.408;13.500;2022-07-23T04:54:23;16.20;;;6.28;;
18473;SDS011;30265;52.408;13.500;2022-07-23T05:04:46;13.68;;;5.60;;
18473;SDS011;30265;52.408;13.500;2022-07-23T05:15:10;14.25;;;5.75;;
18473;SDS011;30265;52.408;13.500;2022-07-23T05:25:33;14.57;;;6.00;;
18473;SDS011;30265;52.408;13.500;2022-07-23T05:36:00;11.27;;;5.47;;
18473;SDS011;30265;52.408;13.500;2022-07-23T05:46:26;8.10;;;4.80;;
18473;SDS011;30265;52.408;13.500;2022-07-23T05:56:55;10.15;;;4.60;;
18473;SDS011;30265;52.408;13.500;2022-07-23T06:07:18;11.65;;;5.68;;
18473;SDS011;30265;52.408;13.500;2022-07-23T06:17:43;9.20;;;4.70;;
18473;SDS011;30265;52.408;13.500;2022-07-23T06:28:05;16.05;;;5.20;;
18473;SDS011;30265;52.408;13.500;2022-07-23T06:38:29;12.65;;;6.28;;
18473;SDS011;30265;52.408;13.500;2022-07-23T06:48:52;12.40;;;6.30;;
18473;SDS011;30265;52.408;13.500;2022-07-23T06:59:15;12.27;;;5.65;;
18473;SDS011;30265;52.408;13.500;2022-07-23T07:09:37;11.50;;;5.00;;
18473;SDS011;30265;52.408;13.500;2022-07-23T07:20:01;17.73;;;6.20;;
18473;SDS011;30265;52.408;13.500;2022-07-23T07:30:23;17.20;;;6.20;;
18473;SDS011;30265;52.408;13.500;2022-07-23T07:40:54;16.25;;;5.90;;
18473;SDS011;30265;52.408;13.500;2022-07-23T07:51:16;15.60;;;6.63;;
18473;SDS011;30265;52.408;13.500;2022-07-23T08:01:41;15.75;;;7.00;;
18473;SDS011;30265;52.408;13.500;2022-07-23T08:12:04;16.42;;;6.22;;
18473;SDS011;30265;52.408;13.500;2022-07-23T08:22:28;14.88;;;6.55;;
18473;SDS011;30265;52.408;13.500;2022-07-23T08:33:03;14.98;;;5.78;;
18473;SDS011;30265;52.408;13.500;2022-07-23T08:43:29;15.10;;;5.90;;
18473;SDS011;30265;52.408;13.500;2022-07-23T08:53:51;12.30;;;6.43;;
18473;SDS011;30265;52.408;13.500;2022-07-23T09:04:15;11.05;;;6.03;;
18473;SDS011;30265;52.408;13.500;2022-07-23T09:14:38;14.32;;;7.53;;
18473;SDS011;30265;52.408;13.500;2022-07-23T09:25:06;13.27;;;6.67;;
18473;SDS011;30265;52.408;13.500;2022-07-23T09:35:45;20.17;;;8.10;;
18473;SDS011;30265;52.408;13.500;2022-07-23T09:46:20;17.63;;;6.75;;
18473;SDS011;30265;52.408;13.500;2022-07-23T09:56:43;15.95;;;6.00;;
18473;SDS011;30265;52.408;13.500;2022-07-23T10:07:07;11.43;;;5.50;;
18473;SDS011;30265;52.408;13.500;2022-07-23T10:17:49;16.63;;;5.40;;
18473;SDS011;30265;52.408;13.500;2022-07-23T10:39:24;10.52;;;4.97;;
18473;SDS011;30265;52.408;13.500;2022-07-23T10:49:49;9.07;;;5.15;;
18473;SDS011;30265;52.408;13.500;2022-07-23T11:00:15;7.10;;;4.55;;
18473;SDS011;30265;52.408;13.500;2022-07-23T11:10:41;7.55;;;3.55;;
18473;SDS011;30265;52.408;13.500;2022-07-23T11:32:05;7.13;;;3.47;;
18473;SDS011;30265;52.408;13.500;2022-07-23T11:42:30;6.00;;;3.33;;
18473;SDS011;30265;52.408;13.500;2022-07-23T11:52:53;6.88;;;3.67;;
18473;SDS011;30265;52.408;13.500;2022-07-23T12:03:16;8.38;;;4.00;;
18473;SDS011;30265;52.408;13.500;2022-07-23T12:13:39;12.00;;;3.83;;
18473;SDS011;30265;52.408;13.500;2022-07-23T12:24:05;5.07;;;3.95;;
18473;SDS011;30265;52.408;13.500;2022-07-23T12:34:30;6.93;;;4.00;;
18473;SDS011;30265;52.408;13.500;2022-07-23T12:45:02;4.95;;;3.55;;
18473;SDS011;30265;52.408;13.500;2022-07-23T12:55:33;10.63;;;4.10;;
18473;SDS011;30265;52.408;13.500;2022-07-23T13:06:15;10.15;;;4.43;;
18473;SDS011;30265;52.408;13.500;2022-07-23T13:16:40;10.10;;;4.03;;
18473;SDS011;30265;52.408;13.500;2022-07-23T13:27:03;8.60;;;4.18;;
18473;SDS011;30265;52.408;13.500;2022-07-23T13:37:33;6.63;;;3.53;;
18473;SDS011;30265;52.408;13.500;2022-07-23T13:47:55;5.45;;;3.45;;
18473;SDS011;30265;52.408;13.500;2022-07-23T14:08:43;5.80;;;4.03;;
18473;SDS011;30265;52.408;13.500;2022-07-23T14:19:06;8.50;;;4.07;;
18473;SDS011;30265;52.408;13.500;2022-07-23T14:29:27;7.13;;;3.08;;
18473;SDS011;30265;52.408;13.500;2022-07-23T14:39:51;8.32;;;3.13;;
18473;SDS011;30265;52.408;13.500;2022-07-23T14:50:13;5.22;;;3.58;;
18473;SDS011;30265;52.408;13.500;2022-07-23T15:00:36;4.30;;;2.67;;
18473;SDS011;30265;52.408;13.500;2022-07-23T15:10:58;5.75;;;2.70;;
18473;SDS011;30265;52.408;13.500;2022-07-23T15:21:21;6.97;;;2.53;;
18473;SDS011;30265;52.408;13.500;2022-07-23T15:31:43;4.40;;;2.70;;
18473;SDS011;30265;52.408;13.500;2022-07-23T15:42:08;3.92;;;2.40;;
18473;SDS011;30265;52.408;13.500;2022-07-23T15:52:34;3.25;;;2.10;;
18473;SDS011;30265;52.408;13.500;2022-07-23T16:03:00;6.65;;;2.72;;
18473;SDS011;30265;52.408;13.500;2022-07-23T16:13:26;3.25;;;2.03;;
18473;SDS011;30265;52.408;13.500;2022-07-23T16:23:50;6.65;;;2.28;;
18473;SDS011;30265;52.408;13.500;2022-07-23T16:34:12;2.88;;;2.00;;
18473;SDS011;30265;52.408;13.500;2022-07-23T16:54:56;5.32;;;1.83;;
18473;SDS011;30265;52.408;13.500;2022-07-23T17:05:20;3.67;;;1.75;;
18473;SDS011;30265;52.408;13.500;2022-07-23T17:15:42;4.88;;;2.05;;
18473;SDS011;30265;52.408;13.500;2022-07-23T17:26:04;2.60;;;1.63;;
18473;SDS011;30265;52.408;13.500;2022-07-23T17:36:26;3.33;;;2.20;;
18473;SDS011;30265;52.408;13.500;2022-07-23T17:46:49;2.83;;;1.80;;
18473;SDS011;30265;52.408;13.500;2022-07-23T17:57:11;3.22;;;1.75;;
18473;SDS011;30265;52.408;13.500;2022-07-23T18:07:35;3.13;;;1.80;;
18473;SDS011;30265;52.408;13.500;2022-07-23T18:17:56;4.68;;;1.60;;
18473;SDS011;30265;52.408;13.500;2022-07-23T18:28:19;2.88;;;1.80;;
18473;SDS011;30265;52.408;13.500;2022-07-23T18:38:41;3.35;;;1.98;;
18473;SDS011;30265;52.408;13.500;2022-07-23T18:49:11;3.22;;;1.83;;
18473;SDS011;30265;52.408;13.500;2022-07-23T18:59:33;2.97;;;1.90;;
18473;SDS011;30265;52.408;13.500;2022-07-23T19:09:57;2.90;;;1.80;;
18473;SDS011;30265;52.408;13.500;2022-07-23T19:20:20;2.22;;;1.63;;
18473;SDS011;30265;52.408;13.500;2022-07-23T19:30:44;6.37;;;2.40;;
18473;SDS011;30265;52.408;13.500;2022-07-23T19:41:07;3.33;;;1.73;;
18473;SDS011;30265;52.408;13.500;2022-07-23T19:51:31;8.15;;;2.17;;
18473;SDS011;30265;52.408;13.500;2022-07-23T20:01:53;2.55;;;1.50;;
18473;SDS011;30265;52.408;13.500;2022-07-23T20:12:16;5.00;;;1.60;;
18473;SDS011;30265;52.408;13.500;2022-07-23T20:22:38;2.13;;;1.40;;
18473;SDS011;30265;52.408;13.500;2022-07-23T20:33:01;3.97;;;1.70;;
18473;SDS011;30265;52.408;13.500;2022-07-23T20:43:24;4.78;;;1.70;;
18473;SDS011;30265;52.408;13.500;2022-07-23T20:53:47;4.35;;;1.40;;
18473;SDS011;30265;52.408;13.500;2022-07-23T21:04:12;3.17;;;1.52;;
18473;SDS011;30265;52.408;13.500;2022-07-23T21:14:35;2.63;;;1.60;;
18473;SDS011;30265;52.408;13.500;2022-07-23T21:25:01;3.65;;;1.50;;
18473;SDS011;30265;52.408;13.500;2022-07-23T21:35:31;4.63;;;1.88;;
18473;SDS011;30265;52.408;13.500;2022-07-23T21:45:53;2.03;;;1.40;;
18473;SDS011;30265;52.408;13.500;2022-07-23T21:56:16;1.90;;;1.40;;
18473;SDS011;30265;52.408;13.500;2022-07-23T22:06:45;2.25;;;1.48;;
18473;SDS011;30265;52.408;13.500;2022-07-23T22:17:08;2.15;;;1.55;;
18473;SDS011;30265;52.408;13.500;2022-07-23T22:27:30;2.38;;;1.52;;
18473;SDS011;30265;52.408;13.500;2022-07-23T22:37:53;4.97;;;1.95;;
18473;SDS011;30265;52.408;13.500;2022-07-23T22:48:14;5.05;;;1.90;;
18473;SDS011;30265;52.408;13.500;2022-07-23T22:58:38;7.40;;;1.73;;
18473;SDS011;30265;52.408;13.500;2022-07-23T23:08:59;2.97;;;1.98;;
18473;SDS011;30265;52.408;13.500;2022-07-23T23:19:23;3.17;;;1.70;;
18473;SDS011;30265;52.408;13.500;2022-07-23T23:29:46;2.10;;;1.58;;
18473;SDS011;30265;52.408;13.500;2022-07-23T23:40:10;3.90;;;2.08;;
18473;SDS011;30265;52.408;13.500;2022-07-23T23:50:32;4.43;;;1.67;;
